Time;durP1;ratioP1;P1;durP2;ratioP2;P2;SDS_P1;SDS_P2;PMS_P1;PMS_P2;Temp;Humidity;BMP_temperature;BMP_pressure;BME280_temperature;BME280_humidity;BME280_pressure;Samples;Min_cycle;Max_cycle;Signal;HPM_P1;HPM_P2
2022/08/07 01:01:24;;;;;;;5.75;3.08;;;10.90;99.90;;;;;;5004526;28;20220;-85
2022/08/07 01:04:08;;;;;;;8.60;3.80;;;10.70;99.90;;;;;;4960001;28;20050;-86
2022/08/07 01:11:28;;;;;;;;;;;;;;;;;;;;;
2022/08/07 01:18:35;;;;;;;5.38;3.47;;;10.60;99.90;;;;;;4941127;28;20099;-86
2022/08/07 01:25:07;;;;;;;6.90;4.78;;;10.50;99.90;;;;;;5064538;28;20044;-86
2022/08/07 01:27:35;;;;;;;7.97;4.20;;;10.40;99.90;;;;;;4975521;28;20052;-86
2022/08/07 01:30:01;;;;;;;6.00;3.83;;;10.40;99.90;;;;;;5054446;28;20051;-86
2022/08/07 01:32:27;;;;;;;6.47;4.40;;;10.30;99.90;;;;;;5054257;28;20371;-86
2022/08/07 01:34:53;;;;;;;7.75;4.10;;;10.30;99.90;;;;;;5039485;28;20028;-85
2022/08/07 01:37:18;;;;;;;8.18;5.40;;;10.20;99.90;;;;;;5062101;28;20125;-86
2022/08/07 01:39:45;;;;;;;8.90;5.40;;;10.20;99.90;;;;;;5053887;28;20032;-86
2022/08/07 01:42:16;;;;;;;7.05;3.90;;;10.10;99.90;;;;;;5057909;28;20495;-85
2022/08/07 01:44:41;;;;;;;9.30;5.15;;;10.10;99.90;;;;;;5039445;28;20085;-86
2022/08/07 01:47:08;;;;;;;8.23;5.15;;;10.20;99.90;;;;;;5061972;28;20039;-86
2022/08/07 01:49:35;;;;;;;7.43;3.83;;;10.30;99.90;;;;;;5054049;28;20390;-86
2022/08/07 01:52:02;;;;;;;7.75;4.90;;;10.40;99.90;;;;;;5070495;28;20560;-85
2022/08/07 01:54:31;;;;;;;8.07;4.57;;;10.40;99.90;;;;;;5063209;28;20029;-84
2022/08/07 01:57:08;;;;;;;7.18;4.93;;;10.30;99.90;;;;;;5050700;28;20051;-84
2022/08/07 01:59:45;;;;;;;6.72;4.20;;;10.40;99.90;;;;;;5033461;28;20033;-84
2022/08/07 02:02:18;;;;;;;6.65;4.18;;;10.40;99.90;;;;;;5049138;28;20443;-84
2022/08/07 02:04:51;;;;;;;8.20;4.97;;;10.50;99.90;;;;;;5047888;28;20087;-84
2022/08/07 02:07:21;;;;;;;6.32;4.65;;;10.50;99.90;;;;;;5061754;28;20033;-84
2022/08/07 02:09:50;;;;;;;6.75;4.47;;;10.60;99.90;;;;;;5069932;28;20051;-84
2022/08/07 02:12:17;;;;;;;7.32;4.38;;;10.60;99.90;;;;;;5053318;28;20041;-84
2022/08/07 02:14:46;;;;;;;6.97;4.30;;;10.60;99.90;;;;;;5046399;28;20040;-84
2022/08/07 02:17:14;;;;;;;5.50;3.70;;;10.60;99.90;;;;;;5043712;28;20090;-84
2022/08/07 02:19:42;;;;;;;5.15;3.80;;;10.50;99.90;;;;;;5044916;28;20036;-84
2022/08/07 02:22:10;;;;;;;7.25;3.80;;;10.50;99.90;;;;;;5069955;28;20044;-84
2022/08/07 02:24:36;;;;;;;7.60;4.53;;;10.40;99.90;;;;;;5049573;28;20109;-84
2022/08/07 02:27:02;;;;;;;6.40;3.88;;;10.40;99.90;;;;;;5061355;28;20040;-84
2022/08/07 02:29:29;;;;;;;7.10;4.00;;;10.30;99.90;;;;;;5053065;28;20032;-85
2022/08/07 02:31:55;;;;;;;7.25;4.60;;;10.40;99.90;;;;;;5053593;28;20570;-84
2022/08/07 02:34:21;;;;;;;8.15;3.80;;;10.30;99.90;;;;;;5048399;28;20044;-84
2022/08/07 02:36:48;;;;;;;8.15;4.70;;;10.20;99.90;;;;;;5060210;28;20083;-84
2022/08/07 02:39:15;;;;;;;5.00;3.08;;;10.20;99.90;;;;;;5052984;28;20502;-84
2022/08/07 02:41:42;;;;;;;5.40;3.80;;;10.10;99.90;;;;;;5044820;28;20168;-84
2022/08/07 02:44:09;;;;;;;5.28;3.42;;;10.00;99.90;;;;;;5053633;28;20040;-83
2022/08/07 02:46:36;;;;;;;8.15;3.60;;;9.90;99.90;;;;;;5058794;28;20519;-84
2022/08/07 02:49:03;;;;;;;5.88;3.65;;;9.90;99.90;;;;;;5052581;28;20482;-84
2022/08/07 02:51:32;;;;;;;5.13;3.33;;;9.80;99.90;;;;;;5069596;28;20123;-84
2022/08/07 02:54:00;;;;;;;7.43;4.47;;;9.80;99.90;;;;;;5061707;28;20036;-83
2022/08/07 02:56:29;;;;;;;6.38;3.88;;;9.70;99.90;;;;;;5053901;28;20513;-84
2022/08/07 02:58:59;;;;;;;9.93;4.90;;;9.70;99.90;;;;;;5029652;28;20160;-84
2022/08/07 03:01:27;;;;;;;7.30;4.30;;;9.70;99.90;;;;;;5016645;28;20044;-84
2022/08/07 03:03:55;;;;;;;6.22;4.18;;;9.70;99.90;;;;;;5048253;28;20115;-84
2022/08/07 03:06:22;;;;;;;6.20;3.50;;;9.70;99.90;;;;;;5040062;28;20082;-84
2022/08/07 03:08:49;;;;;;;6.13;4.03;;;9.70;99.90;;;;;;5051461;28;20090;-83
2022/08/07 03:11:15;;;;;;;8.50;5.18;;;9.70;99.90;;;;;;5069581;28;20040;-84
2022/08/07 03:13:42;;;;;;;6.20;4.25;;;9.70;99.90;;;;;;5069744;28;20495;-83
2022/08/07 03:16:08;;;;;;;9.75;6.05;;;9.70;99.90;;;;;;5035697;28;20351;-84
2022/08/07 03:18:34;;;;;;;9.82;5.57;;;9.80;99.90;;;;;;5055132;28;20040;-84
2022/08/07 03:21:01;;;;;;;4.97;3.83;;;9.80;99.90;;;;;;5069442;28;20586;-84
2022/08/07 03:23:27;;;;;;;6.43;4.57;;;9.80;99.90;;;;;;5038733;28;20037;-83
2022/08/07 03:25:53;;;;;;;9.95;5.25;;;9.90;99.90;;;;;;5033871;28;20044;-84
2022/08/07 03:28:19;;;;;;;8.20;4.68;;;9.90;99.90;;;;;;5066035;28;20077;-84
2022/08/07 03:30:45;;;;;;;8.18;4.70;;;9.90;99.90;;;;;;5052678;28;20037;-84
2022/08/07 03:33:13;;;;;;;9.35;6.13;;;10.00;99.90;;;;;;5066914;28;20123;-84
2022/08/07 03:35:40;;;;;;;8.52;5.20;;;9.90;99.90;;;;;;5049379;28;20502;-84
2022/08/07 03:38:07;;;;;;;9.73;6.00;;;9.90;99.90;;;;;;5066255;28;20125;-83
2022/08/07 03:40:34;;;;;;;12.02;6.60;;;9.80;99.90;;;;;;5038219;28;20119;-85
2022/08/07 03:43:00;;;;;;;10.88;5.22;;;9.90;99.90;;;;;;5033250;28;20067;-83
2022/08/07 03:45:27;;;;;;;12.80;5.93;;;9.80;99.90;;;;;;5061524;28;20051;-83
2022/08/07 03:47:55;;;;;;;12.60;5.07;;;9.80;99.90;;;;;;5047481;28;20463;-83
2022/08/07 03:50:21;;;;;;;9.07;4.18;;;9.70;99.90;;;;;;5073106;28;20051;-83
2022/08/07 03:52:48;;;;;;;8.15;3.72;;;9.70;99.90;;;;;;5073775;28;20032;-83
2022/08/07 03:55:15;;;;;;;15.35;4.70;;;9.60;99.90;;;;;;5069594;28;20073;-83
2022/08/07 03:57:41;;;;;;;9.00;3.58;;;9.50;99.90;;;;;;5051839;28;20037;-83
2022/08/07 04:00:10;;;;;;;6.40;4.28;;;9.40;99.90;;;;;;5056382;28;20411;-82
2022/08/07 04:02:35;;;;;;;6.40;3.88;;;9.40;99.90;;;;;;5056250;28;20040;-85
2022/08/07 04:05:01;;;;;;;9.98;5.15;;;9.40;99.90;;;;;;5052209;28;20038;-85
2022/08/07 04:07:27;;;;;;;9.60;3.78;;;9.30;99.90;;;;;;5064300;28;20036;-85
2022/08/07 04:09:53;;;;;;;8.43;4.45;;;9.30;99.90;;;;;;5072066;28;20032;-85
2022/08/07 04:12:19;;;;;;;7.25;4.18;;;9.30;99.90;;;;;;5053387;28;20080;-85
2022/08/07 04:14:45;;;;;;;7.85;3.67;;;9.30;99.90;;;;;;5019591;28;20060;-85
2022/08/07 04:17:11;;;;;;;5.65;3.20;;;9.30;99.90;;;;;;5047041;28;20033;-85
2022/08/07 04:19:41;;;;;;;8.13;2.78;;;9.30;99.90;;;;;;5055314;28;20521;-84
2022/08/07 04:22:07;;;;;;;7.30;3.95;;;9.30;99.90;;;;;;5055602;28;20090;-84
2022/08/07 04:24:33;;;;;;;5.55;3.30;;;9.30;99.90;;;;;;5053153;28;20395;-85
2022/08/07 04:27:01;;;;;;;10.63;4.68;;;9.30;99.90;;;;;;5052546;28;20037;-85
2022/08/07 04:29:27;;;;;;;6.90;3.88;;;9.30;99.90;;;;;;5051030;28;20028;-85
2022/08/07 04:31:53;;;;;;;7.68;3.42;;;9.30;99.90;;;;;;5049197;28;20040;-85
2022/08/07 04:34:21;;;;;;;9.88;4.93;;;9.40;99.90;;;;;;5057779;28;20029;-85
2022/08/07 04:36:46;;;;;;;11.05;4.97;;;9.50;99.90;;;;;;5059621;28;20044;-85
2022/08/07 04:39:12;;;;;;;8.65;3.80;;;9.50;99.90;;;;;;5065438;28;20045;-85
2022/08/07 04:41:37;;;;;;;5.05;3.38;;;9.50;99.90;;;;;;5063539;28;20076;-85
2022/08/07 04:44:03;;;;;;;6.10;3.25;;;9.60;99.90;;;;;;5047143;28;20052;-85
2022/08/07 04:46:40;;;;;;;9.88;4.22;;;9.50;99.90;;;;;;5037628;28;20501;-85
2022/08/07 04:49:43;;;;;;;8.13;4.55;;;9.50;99.90;;;;;;5058249;28;20111;-85
2022/08/07 04:52:17;;;;;;;11.05;3.30;;;9.60;99.90;;;;;;5061717;28;20038;-85
2022/08/07 04:54:54;;;;;;;8.80;4.25;;;9.60;99.90;;;;;;5031365;28;20033;-85
2022/08/07 04:57:20;;;;;;;17.27;4.28;;;9.70;99.90;;;;;;5054988;28;20040;-84
2022/08/07 04:59:56;;;;;;;11.07;4.32;;;9.80;99.90;;;;;;5070300;28;20133;-84
2022/08/07 05:02:22;;;;;;;11.20;4.50;;;9.80;99.90;;;;;;5071450;28;20132;-85
2022/08/07 05:05:06;;;;;;;9.98;4.03;;;9.90;99.90;;;;;;5067293;28;20147;-84
2022/08/07 05:07:39;;;;;;;10.63;3.67;;;10.00;99.90;;;;;;5058345;28;20053;-85
2022/08/07 05:10:12;;;;;;;7.03;3.60;;;10.10;99.90;;;;;;5071644;28;20439;-85
2022/08/07 05:12:47;;;;;;;8.27;4.03;;;10.20;99.90;;;;;;5054667;28;20491;-84
2022/08/07 05:15:21;;;;;;;14.93;5.93;;;10.20;99.90;;;;;;5064604;28;20029;-84
2022/08/07 05:17:50;;;;;;;7.72;3.97;;;10.30;99.90;;;;;;5058063;28;20045;-84
2022/08/07 05:20:22;;;;;;;10.20;4.53;;;10.30;99.90;;;;;;5055278;28;20398;-84
2022/08/07 05:22:50;;;;;;;9.18;5.07;;;10.40;99.90;;;;;;5051900;28;20045;-84
2022/08/07 05:25:18;;;;;;;12.55;4.85;;;10.60;99.90;;;;;;5055206;28;20068;-84
2022/08/07 05:27:45;;;;;;;9.57;5.03;;;10.70;99.90;;;;;;5061329;28;20057;-83
2022/08/07 05:30:12;;;;;;;14.68;5.40;;;10.80;99.90;;;;;;5050149;28;20060;-83
2022/08/07 05:32:39;;;;;;;9.23;4.75;;;10.90;99.90;;;;;;5051757;28;20041;-83
2022/08/07 05:35:07;;;;;;;19.10;6.57;;;11.00;99.90;;;;;;5054348;28;20040;-83
2022/08/07 05:37:34;;;;;;;8.82;4.82;;;11.20;99.90;;;;;;5062475;28;20033;-83
2022/08/07 05:40:00;;;;;;;7.55;4.95;;;11.30;99.90;;;;;;5070727;28;20047;-83
2022/08/07 05:42:26;;;;;;;10.02;5.75;;;11.40;99.90;;;;;;5071274;28;20509;-83
2022/08/07 05:44:53;;;;;;;11.93;6.07;;;11.60;99.90;;;;;;5041188;28;20120;-83
2022/08/07 05:47:20;;;;;;;10.70;5.40;;;11.70;99.90;;;;;;5045552;28;20033;-84
2022/08/07 05:49:50;;;;;;;11.07;6.05;;;11.90;99.90;;;;;;5070380;28;20068;-84
2022/08/07 05:52:17;;;;;;;15.38;8.23;;;12.00;99.90;;;;;;5068676;28;20036;-83
2022/08/07 05:54:43;;;;;;;15.25;6.15;;;12.10;99.90;;;;;;5043136;28;20377;-84
2022/08/07 05:57:11;;;;;;;14.93;5.90;;;12.20;99.90;;;;;;5048465;28;20175;-83
2022/08/07 05:59:39;;;;;;;9.38;5.82;;;12.40;99.90;;;;;;5050753;28;20392;-83
2022/08/07 06:02:06;;;;;;;13.15;6.10;;;12.60;99.90;;;;;;5033952;28;20051;-84
2022/08/07 06:04:36;;;;;;;15.48;8.32;;;12.70;99.90;;;;;;5048624;28;20040;-84
2022/08/07 06:07:04;;;;;;;12.65;8.13;;;12.90;99.90;;;;;;5071331;28;20115;-84
2022/08/07 06:09:31;;;;;;;17.70;9.23;;;13.10;99.90;;;;;;5053391;28;20032;-84
2022/08/07 06:11:57;;;;;;;16.60;9.45;;;13.20;99.90;;;;;;5057825;28;20045;-84
2022/08/07 06:14:23;;;;;;;17.65;9.57;;;13.40;99.90;;;;;;5033656;28;20037;-83
2022/08/07 06:16:50;;;;;;;14.32;9.93;;;13.50;99.90;;;;;;5057955;28;20089;-84
2022/08/07 06:19:17;;;;;;;17.17;9.27;;;13.70;99.90;;;;;;5050015;28;20051;-84
2022/08/07 06:21:43;;;;;;;11.52;7.72;;;13.80;99.90;;;;;;5046674;28;20491;-84
2022/08/07 06:24:09;;;;;;;10.68;7.40;;;13.90;99.90;;;;;;5050024;28;20569;-84
2022/08/07 06:26:41;;;;;;;11.70;7.03;;;14.10;99.90;;;;;;5057115;28;20078;-84
2022/08/07 06:29:06;;;;;;;13.73;8.50;;;14.20;99.90;;;;;;5062855;28;20045;-84
2022/08/07 06:31:32;;;;;;;12.52;7.78;;;14.40;99.90;;;;;;5053299;28;20063;-84
2022/08/07 06:33:58;;;;;;;13.02;9.10;;;14.50;99.90;;;;;;5069891;28;20051;-84
2022/08/07 06:36:26;;;;;;;12.60;7.85;;;14.70;99.90;;;;;;5056041;28;20033;-85
2022/08/07 06:38:53;;;;;;;11.55;8.00;;;14.80;99.90;;;;;;5060928;28;20043;-84
2022/08/07 06:41:27;;;;;;;12.23;8.30;;;15.00;99.90;;;;;;5053198;28;20509;-84
2022/08/07 06:43:55;;;;;;;17.73;9.85;;;15.10;99.90;;;;;;5052980;28;20037;-85
2022/08/07 06:46:21;;;;;;;15.02;8.52;;;15.30;99.90;;;;;;5057502;28;20033;-84
2022/08/07 06:48:46;;;;;;;14.65;8.25;;;15.40;99.90;;;;;;5051270;28;20043;-84
2022/08/07 06:51:16;;;;;;;13.63;8.88;;;15.50;99.90;;;;;;5046180;28;20072;-84
2022/08/07 06:53:43;;;;;;;11.63;8.38;;;15.70;99.90;;;;;;5036920;28;20033;-85
2022/08/07 06:56:12;;;;;;;11.27;7.10;;;15.80;99.90;;;;;;5057816;28;20078;-85
2022/08/07 06:58:39;;;;;;;12.00;8.13;;;16.00;99.90;;;;;;5056400;28;20045;-84
2022/08/07 07:01:07;;;;;;;11.10;7.55;;;16.30;99.90;;;;;;5050144;28;20556;-86
2022/08/07 07:03:36;;;;;;;11.00;8.15;;;16.70;99.90;;;;;;5044365;28;20077;-85
2022/08/07 07:06:01;;;;;;;11.63;8.60;;;17.00;99.90;;;;;;5033655;28;20038;-85
2022/08/07 07:08:28;;;;;;;9.27;6.38;;;17.30;99.90;;;;;;5038659;28;20040;-85
2022/08/07 07:10:54;;;;;;;8.65;5.10;;;17.60;99.90;;;;;;5044534;28;20112;-86
2022/08/07 07:13:43;;;;;;;7.32;4.88;;;17.80;99.90;;;;;;5045164;28;20160;-85
2022/08/07 07:16:16;;;;;;;5.43;3.92;;;18.10;99.90;;;;;;5055435;28;20048;-85
2022/08/07 07:18:53;;;;;;;7.70;5.07;;;18.30;99.90;;;;;;5038989;28;20068;-85
2022/08/07 07:21:26;;;;;;;5.80;4.38;;;18.60;99.90;;;;;;5050122;28;20036;-85
2022/08/07 07:23:52;;;;;;;5.10;3.65;;;18.80;99.90;;;;;;5056539;28;20139;-84
2022/08/07 07:26:21;;;;;;;6.60;4.40;;;19.00;99.90;;;;;;5048526;28;20041;-85
2022/08/07 07:29:01;;;;;;;5.68;3.80;;;19.20;99.90;;;;;;5039037;28;20032;-85
2022/08/07 07:31:32;;;;;;;6.03;4.30;;;19.50;99.90;;;;;;5027957;28;20049;-84
2022/08/07 07:34:03;;;;;;;5.80;3.78;;;19.80;99.90;;;;;;5033229;28;20045;-84
2022/08/07 07:36:31;;;;;;;3.42;2.53;;;19.90;99.90;;;;;;5032967;28;20052;-84
2022/08/07 07:38:59;;;;;;;6.70;4.22;;;20.00;99.90;;;;;;5029944;28;20048;-84
2022/08/07 07:41:26;;;;;;;7.47;3.28;;;20.00;99.90;;;;;;5060475;28;20120;-84
2022/08/07 07:43:53;;;;;;;3.60;2.65;;;20.10;99.90;;;;;;5061175;28;20111;-84
2022/08/07 07:46:21;;;;;;;3.80;2.30;;;20.30;99.90;;;;;;5035479;28;20112;-84
2022/08/07 07:48:49;;;;;;;4.50;1.83;;;20.40;99.90;;;;;;5060776;28;20036;-83
2022/08/07 07:51:17;;;;;;;4.32;3.10;;;20.50;99.90;;;;;;5052881;28;20136;-84
2022/08/07 07:53:45;;;;;;;4.18;2.33;;;20.40;99.90;;;;;;5036724;28;20513;-82
2022/08/07 07:56:12;;;;;;;4.00;1.60;;;20.40;99.90;;;;;;5051821;28;20499;-83
2022/08/07 07:58:39;;;;;;;2.67;1.02;;;20.70;99.90;;;;;;5047716;28;20534;-83
2022/08/07 08:01:06;;;;;;;5.25;0.95;;;20.80;99.90;;;;;;5033555;28;20083;-83
2022/08/07 08:03:35;;;;;;;1.25;0.43;;;20.90;99.90;;;;;;5019111;28;20033;-81
2022/08/07 08:06:01;;;;;;;1.80;0.50;;;21.00;99.90;;;;;;5036812;28;20139;-83
2022/08/07 08:08:31;;;;;;;0.80;0.30;;;21.10;99.90;;;;;;5061968;28;20391;-83
2022/08/07 08:10:58;;;;;;;1.30;0.40;;;21.30;98.50;;;;;;5068881;28;20547;-83
2022/08/07 08:13:26;;;;;;;1.38;0.68;;;21.40;97.90;;;;;;5057917;28;20514;-82
2022/08/07 08:15:52;;;;;;;1.20;0.45;;;21.40;96.20;;;;;;5079314;28;20049;-82
2022/08/07 08:18:19;;;;;;;3.17;0.57;;;21.50;95.50;;;;;;5074531;28;20099;-83
2022/08/07 08:20:46;;;;;;;2.00;0.40;;;21.40;94.70;;;;;;5054975;28;20041;-83
2022/08/07 08:28:50;;;;;;;2.65;0.70;;;21.90;94.10;;;;;;5063166;28;20084;-82
2022/08/07 08:31:24;;;;;;;2.55;0.70;;;22.10;93.00;;;;;;5048115;28;20045;-82
2022/08/07 08:33:53;;;;;;;2.92;0.80;;;22.30;91.90;;;;;;5047826;28;20044;-81
2022/08/07 08:36:20;;;;;;;1.23;0.40;;;22.20;90.90;;;;;;5080469;28;20056;-82
2022/08/07 08:42:22;;;;;;;1.63;0.43;;;22.30;92.20;;;;;;1162541;22;20420;-81
2022/08/07 08:56:09;;;;;;;2.20;1.13;;;22.80;87.00;;;;;;4985849;28;20198;-79
2022/08/07 08:58:57;;;;;;;1.67;0.70;;;22.90;87.20;;;;;;4983043;28;20121;-80
2022/08/07 09:02:05;;;;;;;;;;;;;;;;;;;;;
2022/08/07 09:09:05;;;;;;;3.22;1.05;;;23.40;83.50;;;;;;5020157;28;20189;-80
2022/08/07 09:12:39;;;;;;;;;;;;;;;;;;;;;
2022/08/07 09:23:08;;;;;;;2.70;0.82;;;24.10;79.80;;;;;;4989874;28;20056;-80
2022/08/07 09:30:12;;;;;;;2.53;0.60;;;24.60;72.10;;;;;;5017754;28;20109;-80
2022/08/07 09:33:36;;;;;;;;;;;;;;;;;;;;;
2022/08/07 09:36:53;;;;;;;1.48;0.55;;;24.50;71.40;;;;;;4976342;28;20050;-80
2022/08/07 09:39:25;;;;;;;2.40;1.00;;;24.80;69.90;;;;;;4980259;28;20126;-80
2022/08/07 09:42:32;;;;;;;2.05;0.88;;;25.10;71.90;;;;;;4960858;28;20059;-80
2022/08/07 09:45:33;;;;;;;0.95;0.70;;;25.40;66.70;;;;;;4991615;28;20107;-80
2022/08/07 09:48:47;;;;;;;1.98;0.60;;;25.20;65.30;;;;;;5015169;28;20042;-80
2022/08/07 09:51:37;;;;;;;1.65;0.77;;;25.00;67.20;;;;;;5019465;28;20117;-80
2022/08/07 09:54:17;;;;;;;1.30;0.50;;;24.90;66.40;;;;;;5019784;28;20034;-79
2022/08/07 09:57:00;;;;;;;1.88;0.77;;;24.20;67.60;;;;;;5020272;28;20046;-81
2022/08/07 10:00:01;;;;;;;5.88;3.90;;;23.90;68.00;;;;;;5017507;28;20045;-79
2022/08/07 10:02:44;;;;;;;3.30;1.67;;;23.90;65.80;;;;;;5013726;28;20093;-79
2022/08/07 10:05:16;;;;;;;1.05;0.32;;;23.80;66.10;;;;;;5001337;28;20104;-80
2022/08/07 10:08:11;;;;;;;3.38;0.77;;;23.30;66.40;;;;;;5005156;28;20104;-80
2022/08/07 10:10:58;;;;;;;3.25;0.98;;;23.10;68.00;;;;;;5018193;28;20105;-80
2022/08/07 10:13:48;;;;;;;2.67;0.68;;;23.10;67.10;;;;;;5017478;28;20416;-79
2022/08/07 10:16:51;;;;;;;1.92;0.52;;;23.10;70.10;;;;;;5022018;28;20068;-82
2022/08/07 10:19:47;;;;;;;2.75;0.68;;;23.20;69.60;;;;;;5008479;28;20162;-80
2022/08/07 10:22:49;;;;;;;2.63;0.55;;;23.70;69.60;;;;;;5005671;28;20046;-81
2022/08/07 10:25:48;;;;;;;4.43;0.80;;;24.20;66.90;;;;;;5016182;28;20081;-78
2022/08/07 10:29:05;;;;;;;2.20;1.02;;;24.80;64.00;;;;;;5003177;28;20381;-79
2022/08/07 10:31:51;;;;;;;3.50;0.75;;;25.40;61.00;;;;;;5005177;28;20050;-78
2022/08/07 10:34:41;;;;;;;1.85;0.50;;;25.50;60.30;;;;;;5018998;28;20038;-79
2022/08/07 10:37:39;;;;;;;0.95;0.50;;;25.30;60.70;;;;;;5014303;28;20117;-79
2022/08/07 10:40:15;;;;;;;0.85;0.35;;;25.20;60.60;;;;;;5019307;28;20040;-79
2022/08/07 10:43:09;;;;;;;2.25;0.50;;;25.70;63.60;;;;;;5033968;28;20127;-80
2022/08/07 10:45:38;;;;;;;1.45;0.60;;;26.40;61.20;;;;;;5019478;28;20432;-78
2022/08/07 10:48:38;;;;;;;1.95;0.30;;;26.80;59.40;;;;;;5019362;28;20050;-80
2022/08/07 10:51:20;;;;;;;1.17;0.63;;;26.70;58.40;;;;;;5013224;28;20050;-80
2022/08/07 10:54:14;;;;;;;1.65;0.30;;;26.90;58.70;;;;;;5019191;28;20084;-78
2022/08/07 10:57:04;;;;;;;1.50;0.40;;;26.90;54.70;;;;;;5019131;28;20054;-78
2022/08/07 10:59:33;;;;;;;2.15;1.00;;;27.10;56.70;;;;;;5008402;28;20035;-78
2022/08/07 11:02:05;;;;;;;3.45;0.68;;;27.20;55.10;;;;;;4992456;28;20122;-77
2022/08/07 11:05:02;;;;;;;1.58;0.40;;;27.10;54.20;;;;;;4998580;28;20053;-81
2022/08/07 11:07:52;;;;;;;0.82;0.50;;;27.30;53.20;;;;;;4997983;28;20114;-80
2022/08/07 11:10:36;;;;;;;0.65;0.43;;;27.90;54.10;;;;;;5019527;28;20034;-80
2022/08/07 11:13:31;;;;;;;2.45;0.30;;;28.10;51.90;;;;;;5034543;28;20113;-81
2022/08/07 11:16:04;;;;;;;1.50;0.40;;;27.60;50.80;;;;;;5006543;28;20067;-80
2022/08/07 11:19:15;;;;;;;0.80;0.40;;;27.20;52.40;;;;;;5011653;28;20101;-80
2022/08/07 11:21:50;;;;;;;1.27;0.50;;;27.20;52.80;;;;;;5005934;28;20061;-81
2022/08/07 11:24:38;;;;;;;1.58;0.35;;;27.30;51.40;;;;;;5012168;28;20400;-80
2022/08/07 11:27:32;;;;;;;1.83;0.30;;;27.70;53.20;;;;;;5022253;28;20164;-80
2022/08/07 11:30:04;;;;;;;0.57;0.30;;;27.90;51.30;;;;;;5001401;28;20037;-82
2022/08/07 11:32:38;;;;;;;2.97;0.35;;;27.50;51.00;;;;;;5011873;28;20046;-81
2022/08/07 11:35:18;;;;;;;0.90;0.40;;;27.40;52.60;;;;;;5003223;28;20035;-80
2022/08/07 11:37:53;;;;;;;1.15;0.40;;;27.60;52.60;;;;;;5008794;28;20049;-83
2022/08/07 11:40:25;;;;;;;1.55;0.30;;;28.00;50.20;;;;;;5009924;28;20045;-82
2022/08/07 11:43:10;;;;;;;0.68;0.28;;;28.20;49.20;;;;;;5009530;28;20444;-81
2022/08/07 11:46:01;;;;;;;1.33;0.32;;;28.30;49.60;;;;;;5008678;28;20132;-82
2022/08/07 11:48:39;;;;;;;1.27;0.30;;;28.20;49.00;;;;;;5010078;28;20489;-81
2022/08/07 11:51:16;;;;;;;0.80;0.30;;;28.20;48.50;;;;;;4994869;28;20046;-81
2022/08/07 11:54:09;;;;;;;0.63;0.30;;;28.20;47.60;;;;;;5011826;28;20046;-81
2022/08/07 11:57:04;;;;;;;12.55;9.20;;;28.60;47.80;;;;;;5010686;28;20476;-81
2022/08/07 11:59:57;;;;;;;1.20;0.40;;;28.50;45.90;;;;;;5013335;28;20076;-81
2022/08/07 12:03:10;;;;;;;2.05;0.70;;;28.10;45.60;;;;;;5013526;28;20068;-81
2022/08/07 12:06:01;;;;;;;0.95;0.20;;;27.90;46.10;;;;;;5013981;28;20049;-81
2022/08/07 12:08:44;;;;;;;1.42;0.30;;;27.90;45.60;;;;;;5014038;28;20049;-82
2022/08/07 12:11:23;;;;;;;0.77;0.20;;;27.70;48.10;;;;;;5014335;28;20034;-81
2022/08/07 12:14:00;;;;;;;0.80;0.25;;;27.90;48.10;;;;;;5013415;28;20045;-82
2022/08/07 12:16:34;;;;;;;2.20;0.30;;;28.20;46.50;;;;;;5013198;28;20046;-82
2022/08/07 12:19:11;;;;;;;2.20;0.35;;;28.40;44.50;;;;;;5013124;28;20049;-81
2022/08/07 12:21:59;;;;;;;0.88;0.30;;;28.10;45.70;;;;;;5014260;28;20500;-82
2022/08/07 12:24:37;;;;;;;0.80;0.20;;;28.10;44.40;;;;;;5013062;28;20401;-82
2022/08/07 12:27:12;;;;;;;1.25;0.20;;;28.00;46.70;;;;;;4993107;28;20108;-82
2022/08/07 12:29:57;;;;;;;1.10;0.30;;;28.20;46.10;;;;;;5009636;28;20047;-83
2022/08/07 12:32:33;;;;;;;0.90;0.30;;;28.10;45.20;;;;;;5005873;28;20125;-81
2022/08/07 12:35:02;;;;;;;1.75;0.20;;;28.00;46.10;;;;;;5012143;28;20121;-82
2022/08/07 12:37:29;;;;;;;1.27;0.43;;;27.90;47.00;;;;;;5012191;28;20052;-82
2022/08/07 12:39:57;;;;;;;0.88;0.20;;;28.00;47.60;;;;;;5012587;28;20042;-82
2022/08/07 12:42:25;;;;;;;0.90;0.30;;;28.30;46.60;;;;;;5012224;28;20050;-82
2022/08/07 12:44:52;;;;;;;1.10;0.30;;;28.30;47.50;;;;;;5007928;28;20053;-82
2022/08/07 12:47:31;;;;;;;1.25;0.30;;;28.40;47.10;;;;;;5003347;28;20128;-82
2022/08/07 12:50:17;;;;;;;2.67;0.20;;;28.70;45.40;;;;;;5012587;28;20441;-81
2022/08/07 12:52:56;;;;;;;0.82;0.28;;;28.90;45.80;;;;;;5012266;28;20073;-82
2022/08/07 12:55:37;;;;;;;1.02;0.55;;;29.00;44.60;;;;;;5010997;28;20112;-82
2022/08/07 12:58:05;;;;;;;2.30;0.30;;;28.40;43.40;;;;;;5011752;28;20034;-82
2022/08/07 13:01:15;;;;;;;2.38;0.40;;;28.40;44.60;;;;;;5009778;28;20041;-81
2022/08/07 13:04:03;;;;;;;1.75;0.30;;;28.90;43.50;;;;;;5008596;28;20144;-81
2022/08/07 13:06:41;;;;;;;1.58;0.30;;;29.10;44.50;;;;;;5026243;28;20141;-81
2022/08/07 13:09:44;;;;;;;1.10;0.20;;;29.30;43.60;;;;;;5026149;28;20042;-82
2022/08/07 13:12:30;;;;;;;0.70;0.30;;;29.00;43.80;;;;;;5020336;28;20049;-82
2022/08/07 13:15:09;;;;;;;1.33;0.20;;;28.70;43.90;;;;;;5028235;28;20042;-81
2022/08/07 13:17:45;;;;;;;1.70;0.50;;;28.40;45.20;;;;;;5011819;28;20045;-82
2022/08/07 13:20:33;;;;;;;1.08;0.20;;;28.80;44.60;;;;;;5012364;28;20049;-82
2022/08/07 13:23:16;;;;;;;1.10;0.30;;;29.30;44.10;;;;;;5010921;28;20056;-81
2022/08/07 13:25:57;;;;;;;1.35;0.28;;;29.70;42.50;;;;;;5004607;28;20084;-82
2022/08/07 13:28:32;;;;;;;0.98;0.30;;;29.80;43.60;;;;;;4999449;28;20532;-81
2022/08/07 13:31:04;;;;;;;0.95;0.30;;;29.90;42.10;;;;;;4993209;28;20493;-81
2022/08/07 13:33:47;;;;;;;1.17;0.25;;;29.80;41.90;;;;;;5005326;28;20507;-81
2022/08/07 13:36:19;;;;;;;2.92;0.30;;;29.70;42.30;;;;;;5017883;28;20109;-81
2022/08/07 13:39:05;;;;;;;0.60;0.35;;;29.90;42.70;;;;;;5015896;28;20408;-80
2022/08/07 13:41:49;;;;;;;0.73;0.20;;;30.30;40.90;;;;;;5016678;28;20106;-81
2022/08/07 13:44:20;;;;;;;0.55;0.22;;;30.00;41.30;;;;;;4996596;28;20064;-81
2022/08/07 13:46:47;;;;;;;3.30;0.20;;;29.60;43.10;;;;;;4998529;28;20125;-81
2022/08/07 13:49:17;;;;;;;1.83;0.50;;;29.30;43.90;;;;;;5014080;28;20060;-82
2022/08/07 13:51:45;;;;;;;0.65;0.30;;;29.80;43.70;;;;;;5021935;28;20088;-81
2022/08/07 13:54:13;;;;;;;2.92;0.28;;;30.20;43.20;;;;;;5034232;28;20046;-81
2022/08/07 13:56:41;;;;;;;1.70;0.30;;;30.30;43.20;;;;;;5013840;28;20441;-81
2022/08/07 13:59:20;;;;;;;1.73;0.20;;;30.20;42.30;;;;;;5019940;28;20407;-81
2022/08/07 14:01:55;;;;;;;1.40;0.20;;;30.60;42.00;;;;;;5015732;28;20046;-81
2022/08/07 14:04:24;;;;;;;0.40;0.17;;;30.70;40.90;;;;;;5012634;28;20124;-81
2022/08/07 14:06:51;;;;;;;0.70;0.25;;;31.00;40.50;;;;;;5011360;28;20117;-81
2022/08/07 14:09:23;;;;;;;0.82;0.20;;;31.30;40.80;;;;;;5011645;28;20037;-81
2022/08/07 14:11:56;;;;;;;0.63;0.20;;;31.10;39.40;;;;;;5000711;28;20408;-82
2022/08/07 14:14:27;;;;;;;1.75;0.20;;;30.70;39.30;;;;;;4991739;28;20436;-82
2022/08/07 14:16:58;;;;;;;0.73;0.30;;;29.80;40.60;;;;;;4991970;28;20053;-81
2022/08/07 14:19:48;;;;;;;0.88;0.20;;;29.20;42.70;;;;;;5003457;28;20570;-81
2022/08/07 14:22:24;;;;;;;0.45;0.20;;;29.00;43.90;;;;;;5012983;28;20475;-81
2022/08/07 14:24:53;;;;;;;0.80;0.30;;;28.80;44.70;;;;;;5012469;28;20049;-82
2022/08/07 14:27:32;;;;;;;2.22;0.20;;;29.00;45.10;;;;;;5010954;28;20193;-81
2022/08/07 14:30:03;;;;;;;1.80;0.25;;;29.40;44.10;;;;;;5011577;28;20069;-81
2022/08/07 14:32:29;;;;;;;0.95;0.20;;;29.10;43.70;;;;;;5028048;28;20048;-82
2022/08/07 14:35:00;;;;;;;1.42;0.20;;;29.30;44.20;;;;;;5014484;28;20049;-80
2022/08/07 14:37:26;;;;;;;1.42;0.35;;;28.90;43.00;;;;;;5013595;28;20045;-80
2022/08/07 14:39:53;;;;;;;0.90;0.30;;;28.20;44.20;;;;;;5018024;28;20508;-80
2022/08/07 14:42:26;;;;;;;2.65;0.30;;;27.50;45.50;;;;;;5017239;28;20041;-80
2022/08/07 14:44:56;;;;;;;1.30;0.50;;;26.80;47.20;;;;;;5016003;28;20042;-80
2022/08/07 14:47:25;;;;;;;1.42;0.20;;;26.40;48.30;;;;;;5016189;28;20069;-80
2022/08/07 14:49:52;;;;;;;0.60;0.20;;;26.20;49.20;;;;;;5033369;28;20062;-80
2022/08/07 14:52:20;;;;;;;0.77;0.30;;;26.70;49.40;;;;;;5017289;28;20480;-79
2022/08/07 14:54:49;;;;;;;0.88;0.20;;;27.40;47.90;;;;;;5009933;28;20050;-79
2022/08/07 14:57:16;;;;;;;0.90;0.20;;;27.30;47.60;;;;;;5016308;28;20044;-80
2022/08/07 14:59:43;;;;;;;1.00;0.30;;;26.80;47.80;;;;;;5016811;28;20111;-79
2022/08/07 15:02:15;;;;;;;1.35;0.40;;;26.20;48.30;;;;;;5015886;28;20038;-79
2022/08/07 15:04:43;;;;;;;3.05;0.50;;;26.00;49.90;;;;;;5016406;28;20078;-80
2022/08/07 15:07:15;;;;;;;0.63;0.30;;;25.80;50.80;;;;;;5013347;28;20057;-81
2022/08/07 15:09:42;;;;;;;2.50;0.30;;;25.70;51.50;;;;;;5013445;28;20048;-81
2022/08/07 15:12:13;;;;;;;1.70;0.95;;;26.10;50.60;;;;;;5014390;28;20600;-80
2022/08/07 15:14:48;;;;;;;1.48;0.55;;;27.00;49.70;;;;;;5010638;28;20121;-80
2022/08/07 15:17:16;;;;;;;2.97;0.40;;;27.50;49.50;;;;;;5013192;28;20131;-80